sensor_id;sensor_type;location;lat;lon;timestamp;P1;durP1;ratioP1;P2;durP2;ratioP2
18669;SDS011;9464;44.918;9.670;2023-03-08T00:01:01;18.30;;;10.23;;
18669;SDS011;9464;44.918;9.670;2023-03-08T00:03:30;20.20;;;10.30;;
18669;SDS011;9464;44.918;9.670;2023-03-08T00:05:58;18.23;;;9.10;;
18669;SDS011;9464;44.918;9.670;2023-03-08T00:08:32;28.73;;;10.60;;
18669;SDS011;9464;44.918;9.670;2023-03-08T00:11:03;22.37;;;10.83;;
18669;SDS011;9464;44.918;9.670;2023-03-08T00:13:31;20.07;;;10.03;;
18669;SDS011;9464;44.918;9.670;2023-03-08T00:16:00;18.37;;;9.40;;
18669;SDS011;9464;44.918;9.670;2023-03-08T00:18:29;22.90;;;9.83;;
18669;SDS011;9464;44.918;9.670;2023-03-08T00:20:58;19.07;;;8.87;;
18669;SDS011;9464;44.918;9.670;2023-03-08T00:23:27;17.93;;;8.30;;
18669;SDS011;9464;44.918;9.670;2023-03-08T00:25:56;14.93;;;6.63;;
18669;SDS011;9464;44.918;9.670;2023-03-08T00:28:25;16.33;;;6.47;;
18669;SDS011;9464;44.918;9.670;2023-03-08T00:30:54;11.27;;;5.40;;
18669;SDS011;9464;44.918;9.670;2023-03-08T00:33:22;13.13;;;6.17;;
18669;SDS011;9464;44.918;9.670;2023-03-08T00:35:54;11.60;;;5.17;;
18669;SDS011;9464;44.918;9.670;2023-03-08T00:38:23;12.90;;;6.23;;
18669;SDS011;9464;44.918;9.670;2023-03-08T00:40:52;16.63;;;7.10;;
18669;SDS011;9464;44.918;9.670;2023-03-08T00:43:22;10.47;;;5.37;;
18669;SDS011;9464;44.918;9.670;2023-03-08T00:45:50;8.93;;;4.97;;
18669;SDS011;9464;44.918;9.670;2023-03-08T00:48:19;12.60;;;5.90;;
18669;SDS011;9464;44.918;9.670;2023-03-08T00:50:47;10.17;;;5.53;;
18669;SDS011;9464;44.918;9.670;2023-03-08T00:53:16;10.20;;;5.63;;
18669;SDS011;9464;44.918;9.670;2023-03-08T00:55:47;13.33;;;5.90;;
18669;SDS011;9464;44.918;9.670;2023-03-08T00:58:16;11.80;;;5.27;;
18669;SDS011;9464;44.918;9.670;2023-03-08T01:00:45;14.07;;;5.73;;
18669;SDS011;9464;44.918;9.670;2023-03-08T01:03:14;11.20;;;5.63;;
18669;SDS011;9464;44.918;9.670;2023-03-08T01:05:43;6.83;;;4.70;;
18669;SDS011;9464;44.918;9.670;2023-03-08T01:08:13;8.23;;;4.77;;
18669;SDS011;9464;44.918;9.670;2023-03-08T01:10:45;13.73;;;4.70;;
18669;SDS011;9464;44.918;9.670;2023-03-08T01:13:14;7.87;;;3.97;;
18669;SDS011;9464;44.918;9.670;2023-03-08T01:15:42;9.87;;;4.70;;
18669;SDS011;9464;44.918;9.670;2023-03-08T01:18:12;8.23;;;4.30;;
18669;SDS011;9464;44.918;9.670;2023-03-08T01:20:40;13.07;;;4.57;;
18669;SDS011;9464;44.918;9.670;2023-03-08T01:23:09;15.17;;;5.13;;
18669;SDS011;9464;44.918;9.670;2023-03-08T01:25:37;10.83;;;5.20;;
18669;SDS011;9464;44.918;9.670;2023-03-08T01:28:05;10.07;;;4.33;;
18669;SDS011;9464;44.918;9.670;2023-03-08T01:30:33;10.37;;;5.20;;
18669;SDS011;9464;44.918;9.670;2023-03-08T01:33:02;9.93;;;4.93;;
18669;SDS011;9464;44.918;9.670;2023-03-08T01:35:32;11.63;;;4.63;;
18669;SDS011;9464;44.918;9.670;2023-03-08T01:38:00;7.97;;;4.57;;
18669;SDS011;9464;44.918;9.670;2023-03-08T01:40:28;8.00;;;4.60;;
18669;SDS011;9464;44.918;9.670;2023-03-08T01:42:56;9.90;;;4.47;;
18669;SDS011;9464;44.918;9.670;2023-03-08T01:48:30;5.83;;;3.50;;
18669;SDS011;9464;44.918;9.670;2023-03-08T01:51:03;8.00;;;3.67;;
18669;SDS011;9464;44.918;9.670;2023-03-08T01:53:34;5.93;;;3.20;;
18669;SDS011;9464;44.918;9.670;2023-03-08T01:56:05;6.03;;;3.60;;
18669;SDS011;9464;44.918;9.670;2023-03-08T01:58:38;8.90;;;4.00;;
18669;SDS011;9464;44.918;9.670;2023-03-08T02:01:06;10.13;;;3.30;;
18669;SDS011;9464;44.918;9.670;2023-03-08T02:03:35;7.87;;;3.80;;
18669;SDS011;9464;44.918;9.670;2023-03-08T02:06:05;7.23;;;3.20;;
18669;SDS011;9464;44.918;9.670;2023-03-08T02:08:34;5.43;;;3.20;;
18669;SDS011;9464;44.918;9.670;2023-03-08T02:11:03;6.17;;;3.13;;
18669;SDS011;9464;44.918;9.670;2023-03-08T02:13:31;7.57;;;3.07;;
18669;SDS011;9464;44.918;9.670;2023-03-08T02:15:59;7.40;;;3.13;;
18669;SDS011;9464;44.918;9.670;2023-03-08T02:18:31;5.37;;;3.40;;
18669;SDS011;9464;44.918;9.670;2023-03-08T02:20:59;6.97;;;3.27;;
18669;SDS011;9464;44.918;9.670;2023-03-08T02:23:29;7.73;;;3.17;;
18669;SDS011;9464;44.918;9.670;2023-03-08T02:25:59;7.63;;;2.93;;
18669;SDS011;9464;44.918;9.670;2023-03-08T02:28:29;9.20;;;3.13;;
18669;SDS011;9464;44.918;9.670;2023-03-08T02:30:58;8.63;;;3.90;;
18669;SDS011;9464;44.918;9.670;2023-03-08T02:33:27;8.97;;;3.30;;
18669;SDS011;9464;44.918;9.670;2023-03-08T02:35:55;6.47;;;3.30;;
18669;SDS011;9464;44.918;9.670;2023-03-08T02:38:24;8.40;;;3.67;;
18669;SDS011;9464;44.918;9.670;2023-03-08T02:40:53;5.87;;;3.07;;
18669;SDS011;9464;44.918;9.670;2023-03-08T02:43:21;9.13;;;3.70;;
18669;SDS011;9464;44.918;9.670;2023-03-08T02:45:50;6.80;;;3.40;;
18669;SDS011;9464;44.918;9.670;2023-03-08T02:48:18;6.13;;;3.30;;
18669;SDS011;9464;44.918;9.670;2023-03-08T02:50:46;7.20;;;2.83;;
18669;SDS011;9464;44.918;9.670;2023-03-08T02:53:15;7.40;;;2.93;;
18669;SDS011;9464;44.918;9.670;2023-03-08T02:55:43;7.77;;;3.30;;
18669;SDS011;9464;44.918;9.670;2023-03-08T02:58:12;3.20;;;2.50;;
18669;SDS011;9464;44.918;9.670;2023-03-08T03:00:40;7.67;;;3.03;;
18669;SDS011;9464;44.918;9.670;2023-03-08T03:03:09;6.13;;;2.97;;
18669;SDS011;9464;44.918;9.670;2023-03-08T03:05:39;7.33;;;3.17;;
18669;SDS011;9464;44.918;9.670;2023-03-08T03:08:09;7.83;;;3.33;;
18669;SDS011;9464;44.918;9.670;2023-03-08T03:10:38;5.00;;;3.20;;
18669;SDS011;9464;44.918;9.670;2023-03-08T03:13:07;9.17;;;3.63;;
18669;SDS011;9464;44.918;9.670;2023-03-08T03:15:38;4.37;;;3.30;;
18669;SDS011;9464;44.918;9.670;2023-03-08T03:18:06;7.77;;;3.57;;
18669;SDS011;9464;44.918;9.670;2023-03-08T03:20:34;8.33;;;3.37;;
18669;SDS011;9464;44.918;9.670;2023-03-08T03:23:03;6.10;;;3.33;;
18669;SDS011;9464;44.918;9.670;2023-03-08T03:25:35;6.27;;;3.37;;
18669;SDS011;9464;44.918;9.670;2023-03-08T03:28:03;4.70;;;3.30;;
18669;SDS011;9464;44.918;9.670;2023-03-08T03:30:32;6.93;;;3.20;;
18669;SDS011;9464;44.918;9.670;2023-03-08T03:33:01;4.60;;;3.00;;
18669;SDS011;9464;44.918;9.670;2023-03-08T03:35:30;10.90;;;3.50;;
18669;SDS011;9464;44.918;9.670;2023-03-08T03:37:58;6.80;;;3.27;;
18669;SDS011;9464;44.918;9.670;2023-03-08T03:40:26;6.27;;;3.00;;
18669;SDS011;9464;44.918;9.670;2023-03-08T03:42:54;4.83;;;2.63;;
18669;SDS011;9464;44.918;9.670;2023-03-08T03:45:22;8.00;;;2.70;;
18669;SDS011;9464;44.918;9.670;2023-03-08T03:47:51;5.97;;;2.73;;
18669;SDS011;9464;44.918;9.670;2023-03-08T03:50:20;4.43;;;2.97;;
18669;SDS011;9464;44.918;9.670;2023-03-08T03:52:48;5.73;;;3.20;;
18669;SDS011;9464;44.918;9.670;2023-03-08T03:55:16;5.90;;;3.47;;
18669;SDS011;9464;44.918;9.670;2023-03-08T03:57:45;7.77;;;3.37;;
18669;SDS011;9464;44.918;9.670;2023-03-08T04:00:13;6.43;;;3.27;;
18669;SDS011;9464;44.918;9.670;2023-03-08T04:02:42;7.00;;;2.73;;
18669;SDS011;9464;44.918;9.670;2023-03-08T04:05:10;8.80;;;2.90;;
18669;SDS011;9464;44.918;9.670;2023-03-08T04:07:40;4.07;;;2.80;;
18669;SDS011;9464;44.918;9.670;2023-03-08T04:10:08;8.27;;;3.20;;
18669;SDS011;9464;44.918;9.670;2023-03-08T04:12:37;7.23;;;3.50;;
18669;SDS011;9464;44.918;9.670;2023-03-08T04:15:06;8.03;;;3.20;;
18669;SDS011;9464;44.918;9.670;2023-03-08T04:17:35;4.00;;;2.80;;
18669;SDS011;9464;44.918;9.670;2023-03-08T04:20:03;8.80;;;3.30;;
18669;SDS011;9464;44.918;9.670;2023-03-08T04:22:32;6.23;;;3.10;;
18669;SDS011;9464;44.918;9.670;2023-03-08T04:25:02;6.27;;;3.00;;
18669;SDS011;9464;44.918;9.670;2023-03-08T04:27:31;6.70;;;2.93;;
18669;SDS011;9464;44.918;9.670;2023-03-08T04:29:59;5.40;;;2.93;;
18669;SDS011;9464;44.918;9.670;2023-03-08T04:32:27;8.30;;;2.93;;
18669;SDS011;9464;44.918;9.670;2023-03-08T04:34:57;6.50;;;3.10;;
18669;SDS011;9464;44.918;9.670;2023-03-08T04:37:25;5.47;;;2.97;;
18669;SDS011;9464;44.918;9.670;2023-03-08T04:39:53;6.00;;;3.07;;
18669;SDS011;9464;44.918;9.670;2023-03-08T04:42:23;6.10;;;3.10;;
18669;SDS011;9464;44.918;9.670;2023-03-08T04:44:51;5.90;;;3.30;;
18669;SDS011;9464;44.918;9.670;2023-03-08T04:47:19;6.33;;;2.80;;
18669;SDS011;9464;44.918;9.670;2023-03-08T04:49:47;3.87;;;2.40;;
18669;SDS011;9464;44.918;9.670;2023-03-08T04:52:15;7.47;;;3.13;;
18669;SDS011;9464;44.918;9.670;2023-03-08T04:54:44;9.37;;;3.53;;
18669;SDS011;9464;44.918;9.670;2023-03-08T04:57:12;5.40;;;3.20;;
18669;SDS011;9464;44.918;9.670;2023-03-08T04:59:43;6.07;;;2.77;;
18669;SDS011;9464;44.918;9.670;2023-03-08T05:02:11;4.53;;;2.80;;
18669;SDS011;9464;44.918;9.670;2023-03-08T05:04:39;7.73;;;2.77;;
18669;SDS011;9464;44.918;9.670;2023-03-08T05:07:07;5.00;;;3.03;;
18669;SDS011;9464;44.918;9.670;2023-03-08T05:09:36;8.00;;;3.37;;
18669;SDS011;9464;44.918;9.670;2023-03-08T05:12:04;8.40;;;2.90;;
18669;SDS011;9464;44.918;9.670;2023-03-08T05:14:33;4.57;;;2.97;;
18669;SDS011;9464;44.918;9.670;2023-03-08T05:17:02;12.03;;;3.33;;
18669;SDS011;9464;44.918;9.670;2023-03-08T05:19:31;4.50;;;2.60;;
18669;SDS011;9464;44.918;9.670;2023-03-08T05:21:59;10.10;;;3.10;;
18669;SDS011;9464;44.918;9.670;2023-03-08T05:24:27;7.47;;;2.80;;
18669;SDS011;9464;44.918;9.670;2023-03-08T05:26:55;8.30;;;3.40;;
18669;SDS011;9464;44.918;9.670;2023-03-08T05:29:23;9.30;;;3.10;;
18669;SDS011;9464;44.918;9.670;2023-03-08T05:31:51;4.97;;;3.23;;
18669;SDS011;9464;44.918;9.670;2023-03-08T05:34:21;4.97;;;3.63;;
18669;SDS011;9464;44.918;9.670;2023-03-08T05:36:49;8.87;;;3.70;;
18669;SDS011;9464;44.918;9.670;2023-03-08T05:39:18;8.73;;;3.20;;
18669;SDS011;9464;44.918;9.670;2023-03-08T05:41:47;6.60;;;3.40;;
18669;SDS011;9464;44.918;9.670;2023-03-08T05:44:15;7.53;;;4.60;;
18669;SDS011;9464;44.918;9.670;2023-03-08T05:46:43;7.20;;;3.33;;
18669;SDS011;9464;44.918;9.670;2023-03-08T05:49:11;6.73;;;3.27;;
18669;SDS011;9464;44.918;9.670;2023-03-08T05:51:41;5.00;;;3.20;;
18669;SDS011;9464;44.918;9.670;2023-03-08T05:54:09;7.80;;;3.30;;
18669;SDS011;9464;44.918;9.670;2023-03-08T05:56:38;7.93;;;4.60;;
18669;SDS011;9464;44.918;9.670;2023-03-08T05:59:06;8.57;;;3.33;;
18669;SDS011;9464;44.918;9.670;2023-03-08T06:01:34;6.77;;;3.47;;
18669;SDS011;9464;44.918;9.670;2023-03-08T06:04:03;10.27;;;4.30;;
18669;SDS011;9464;44.918;9.670;2023-03-08T06:06:31;11.03;;;5.73;;
18669;SDS011;9464;44.918;9.670;2023-03-08T06:09:01;19.27;;;8.67;;
18669;SDS011;9464;44.918;9.670;2023-03-08T06:11:30;10.07;;;4.40;;
18669;SDS011;9464;44.918;9.670;2023-03-08T06:13:58;8.87;;;4.47;;
18669;SDS011;9464;44.918;9.670;2023-03-08T06:16:26;13.43;;;4.53;;
18669;SDS011;9464;44.918;9.670;2023-03-08T06:18:55;13.37;;;4.83;;
18669;SDS011;9464;44.918;9.670;2023-03-08T06:21:23;8.90;;;4.83;;
18669;SDS011;9464;44.918;9.670;2023-03-08T06:23:51;13.03;;;5.07;;
18669;SDS011;9464;44.918;9.670;2023-03-08T06:26:21;9.50;;;4.97;;
18669;SDS011;9464;44.918;9.670;2023-03-08T06:28:49;7.10;;;4.53;;
18669;SDS011;9464;44.918;9.670;2023-03-08T06:31:17;9.47;;;4.70;;
18669;SDS011;9464;44.918;9.670;2023-03-08T06:33:46;9.27;;;4.30;;
18669;SDS011;9464;44.918;9.670;2023-03-08T06:36:14;10.70;;;5.13;;
18669;SDS011;9464;44.918;9.670;2023-03-08T06:38:44;11.80;;;5.40;;
18669;SDS011;9464;44.918;9.670;2023-03-08T06:41:14;12.23;;;5.00;;
18669;SDS011;9464;44.918;9.670;2023-03-08T06:43:44;11.07;;;4.67;;
18669;SDS011;9464;44.918;9.670;2023-03-08T06:46:13;7.60;;;5.10;;
18669;SDS011;9464;44.918;9.670;2023-03-08T06:48:43;9.13;;;4.87;;
18669;SDS011;9464;44.918;9.670;2023-03-08T06:51:12;12.73;;;4.73;;
18669;SDS011;9464;44.918;9.670;2023-03-08T06:53:41;9.93;;;4.10;;
18669;SDS011;9464;44.918;9.670;2023-03-08T06:56:10;16.63;;;4.83;;
18669;SDS011;9464;44.918;9.670;2023-03-08T06:58:40;13.63;;;4.63;;
18669;SDS011;9464;44.918;9.670;2023-03-08T07:01:10;8.10;;;4.27;;
18669;SDS011;9464;44.918;9.670;2023-03-08T07:03:40;9.30;;;4.97;;
18669;SDS011;9464;44.918;9.670;2023-03-08T07:06:10;12.10;;;4.97;;
18669;SDS011;9464;44.918;9.670;2023-03-08T07:08:39;14.63;;;4.70;;
18669;SDS011;9464;44.918;9.670;2023-03-08T07:11:07;10.43;;;6.13;;
18669;SDS011;9464;44.918;9.670;2023-03-08T07:13:36;8.87;;;5.30;;
18669;SDS011;9464;44.918;9.670;2023-03-08T07:16:05;13.07;;;5.80;;
18669;SDS011;9464;44.918;9.670;2023-03-08T07:18:36;8.63;;;5.97;;
18669;SDS011;9464;44.918;9.670;2023-03-08T07:21:04;11.83;;;6.37;;
18669;SDS011;9464;44.918;9.670;2023-03-08T07:23:33;12.53;;;6.13;;
18669;SDS011;9464;44.918;9.670;2023-03-08T07:26:02;12.10;;;6.00;;
18669;SDS011;9464;44.918;9.670;2023-03-08T07:28:32;14.10;;;5.30;;
18669;SDS011;9464;44.918;9.670;2023-03-08T07:31:00;8.80;;;4.33;;
18669;SDS011;9464;44.918;9.670;2023-03-08T07:33:29;8.20;;;4.87;;
18669;SDS011;9464;44.918;9.670;2023-03-08T07:35:59;10.37;;;4.37;;
18669;SDS011;9464;44.918;9.670;2023-03-08T07:38:28;14.17;;;4.37;;
18669;SDS011;9464;44.918;9.670;2023-03-08T07:40:57;10.63;;;4.10;;
18669;SDS011;9464;44.918;9.670;2023-03-08T07:43:25;12.17;;;5.03;;
18669;SDS011;9464;44.918;9.670;2023-03-08T07:45:53;8.57;;;5.03;;
18669;SDS011;9464;44.918;9.670;2023-03-08T07:48:21;10.60;;;5.07;;
18669;SDS011;9464;44.918;9.670;2023-03-08T07:50:50;11.93;;;5.60;;
18669;SDS011;9464;44.918;9.670;2023-03-08T07:53:19;11.53;;;4.90;;
18669;SDS011;9464;44.918;9.670;2023-03-08T07:55:48;9.83;;;5.10;;
18669;SDS011;9464;44.918;9.670;2023-03-08T07:58:16;11.63;;;5.13;;
18669;SDS011;9464;44.918;9.670;2023-03-08T08:00:44;9.93;;;4.90;;
18669;SDS011;9464;44.918;9.670;2023-03-08T08:03:12;9.70;;;5.00;;
18669;SDS011;9464;44.918;9.670;2023-03-08T08:05:41;9.43;;;5.50;;
18669;SDS011;9464;44.918;9.670;2023-03-08T08:08:09;11.63;;;5.53;;
18669;SDS011;9464;44.918;9.670;2023-03-08T08:10:40;13.13;;;5.40;;
18669;SDS011;9464;44.918;9.670;2023-03-08T08:13:09;11.83;;;5.33;;
18669;SDS011;9464;44.918;9.670;2023-03-08T08:15:37;12.87;;;5.93;;
18669;SDS011;9464;44.918;9.670;2023-03-08T08:18:06;9.57;;;5.73;;
18669;SDS011;9464;44.918;9.670;2023-03-08T08:20:34;12.57;;;5.63;;
18669;SDS011;9464;44.918;9.670;2023-03-08T08:23:03;12.37;;;5.83;;
18669;SDS011;9464;44.918;9.670;2023-03-08T08:25:32;14.70;;;6.60;;
18669;SDS011;9464;44.918;9.670;2023-03-08T08:28:02;16.63;;;6.70;;
18669;SDS011;9464;44.918;9.670;2023-03-08T08:30:30;14.77;;;5.97;;
18669;SDS011;9464;44.918;9.670;2023-03-08T08:32:59;13.70;;;6.30;;
18669;SDS011;9464;44.918;9.670;2023-03-08T08:35:28;12.20;;;5.90;;
18669;SDS011;9464;44.918;9.670;2023-03-08T08:38:08;29.00;;;15.93;;
18669;SDS011;9464;44.918;9.670;2023-03-08T08:40:37;48.40;;;19.73;;
18669;SDS011;9464;44.918;9.670;2023-03-08T08:43:06;28.10;;;15.37;;
18669;SDS011;9464;44.918;9.670;2023-03-08T08:45:34;85.27;;;37.40;;
18669;SDS011;9464;44.918;9.670;2023-03-08T08:48:03;44.77;;;22.43;;
18669;SDS011;9464;44.918;9.670;2023-03-08T08:50:31;20.90;;;9.77;;
18669;SDS011;9464;44.918;9.670;2023-03-08T08:52:59;15.37;;;7.67;;
18669;SDS011;9464;44.918;9.670;2023-03-08T08:55:28;43.13;;;22.43;;
18669;SDS011;9464;44.918;9.670;2023-03-08T08:57:56;12.17;;;8.00;;
18669;SDS011;9464;44.918;9.670;2023-03-08T09:00:26;14.80;;;8.30;;
18669;SDS011;9464;44.918;9.670;2023-03-08T09:02:54;13.73;;;7.20;;
18669;SDS011;9464;44.918;9.670;2023-03-08T09:05:22;15.07;;;7.83;;
18669;SDS011;9464;44.918;9.670;2023-03-08T09:07:51;13.40;;;7.70;;
18669;SDS011;9464;44.918;9.670;2023-03-08T09:10:20;17.33;;;7.67;;
18669;SDS011;9464;44.918;9.670;2023-03-08T09:12:48;15.07;;;8.20;;
18669;SDS011;9464;44.918;9.670;2023-03-08T09:15:17;18.27;;;7.90;;
18669;SDS011;9464;44.918;9.670;2023-03-08T09:17:48;14.83;;;8.10;;
18669;SDS011;9464;44.918;9.670;2023-03-08T09:20:17;19.53;;;8.57;;
18669;SDS011;9464;44.918;9.670;2023-03-08T09:22:48;21.50;;;9.10;;
18669;SDS011;9464;44.918;9.670;2023-03-08T09:25:16;20.43;;;9.10;;
18669;SDS011;9464;44.918;9.670;2023-03-08T09:27:49;18.43;;;9.07;;
18669;SDS011;9464;44.918;9.670;2023-03-08T09:30:17;17.53;;;8.53;;
18669;SDS011;9464;44.918;9.670;2023-03-08T09:32:47;17.90;;;9.40;;
18669;SDS011;9464;44.918;9.670;2023-03-08T09:35:15;18.00;;;9.53;;
18669;SDS011;9464;44.918;9.670;2023-03-08T09:37:44;15.37;;;8.77;;
18669;SDS011;9464;44.918;9.670;2023-03-08T09:40:19;17.57;;;9.53;;
18669;SDS011;9464;44.918;9.670;2023-03-08T09:42:50;50.27;;;26.70;;
18669;SDS011;9464;44.918;9.670;2023-03-08T09:45:23;28.43;;;14.03;;
18669;SDS011;9464;44.918;9.670;2023-03-08T09:47:56;18.67;;;10.40;;
18669;SDS011;9464;44.918;9.670;2023-03-08T09:50:32;19.70;;;9.87;;
18669;SDS011;9464;44.918;9.670;2023-03-08T09:53:12;22.10;;;11.10;;
18669;SDS011;9464;44.918;9.670;2023-03-08T09:55:48;21.03;;;9.93;;
18669;SDS011;9464;44.918;9.670;2023-03-08T09:58:21;24.87;;;10.00;;
18669;SDS011;9464;44.918;9.670;2023-03-08T10:00:57;20.47;;;9.20;;
18669;SDS011;9464;44.918;9.670;2023-03-08T10:03:36;17.30;;;9.57;;
18669;SDS011;9464;44.918;9.670;2023-03-08T10:06:21;22.13;;;10.77;;
18669;SDS011;9464;44.918;9.670;2023-03-08T10:09:00;21.30;;;10.00;;
18669;SDS011;9464;44.918;9.670;2023-03-08T10:11:35;23.13;;;10.33;;
18669;SDS011;9464;44.918;9.670;2023-03-08T10:14:12;17.50;;;10.33;;
18669;SDS011;9464;44.918;9.670;2023-03-08T10:16:47;19.67;;;10.63;;
18669;SDS011;9464;44.918;9.670;2023-03-08T10:19:22;15.57;;;9.17;;
18669;SDS011;9464;44.918;9.670;2023-03-08T10:21:55;21.13;;;10.13;;
18669;SDS011;9464;44.918;9.670;2023-03-08T10:24:25;22.33;;;10.57;;
18669;SDS011;9464;44.918;9.670;2023-03-08T10:27:01;25.67;;;11.67;;
18669;SDS011;9464;44.918;9.670;2023-03-08T10:29:36;18.27;;;11.40;;
18669;SDS011;9464;44.918;9.670;2023-03-08T10:32:05;16.60;;;9.97;;
18669;SDS011;9464;44.918;9.670;2023-03-08T10:34:38;21.17;;;10.30;;
18669;SDS011;9464;44.918;9.670;2023-03-08T10:37:07;16.83;;;9.57;;
18669;SDS011;9464;44.918;9.670;2023-03-08T10:39:36;18.23;;;10.07;;
18669;SDS011;9464;44.918;9.670;2023-03-08T10:42:15;20.83;;;9.97;;
18669;SDS011;9464;44.918;9.670;2023-03-08T10:44:44;21.80;;;10.77;;
18669;SDS011;9464;44.918;9.670;2023-03-08T10:47:22;19.77;;;9.87;;
18669;SDS011;9464;44.918;9.670;2023-03-08T10:50:09;20.47;;;9.93;;
18669;SDS011;9464;44.918;9.670;2023-03-08T10:52:40;23.67;;;10.33;;
18669;SDS011;9464;44.918;9.670;2023-03-08T10:55:12;32.63;;;14.97;;
18669;SDS011;9464;44.918;9.670;2023-03-08T10:57:42;23.60;;;12.40;;
18669;SDS011;9464;44.918;9.670;2023-03-08T11:03:10;16.27;;;9.27;;
18669;SDS011;9464;44.918;9.670;2023-03-08T11:05:54;17.33;;;11.30;;
18669;SDS011;9464;44.918;9.670;2023-03-08T11:08:25;15.17;;;9.07;;
18669;SDS011;9464;44.918;9.670;2023-03-08T11:10:58;24.30;;;12.50;;
18669;SDS011;9464;44.918;9.670;2023-03-08T11:13:28;21.60;;;9.10;;
18669;SDS011;9464;44.918;9.670;2023-03-08T11:16:01;14.43;;;8.83;;
18669;SDS011;9464;44.918;9.670;2023-03-08T11:18:40;41.17;;;19.93;;
18669;SDS011;9464;44.918;9.670;2023-03-08T11:21:19;29.57;;;12.23;;
18669;SDS011;9464;44.918;9.670;2023-03-08T11:23:55;12.93;;;8.63;;
18669;SDS011;9464;44.918;9.670;2023-03-08T11:26:33;43.53;;;25.13;;
18669;SDS011;9464;44.918;9.670;2023-03-08T11:29:12;23.33;;;13.03;;
18669;SDS011;9464;44.918;9.670;2023-03-08T11:31:53;20.30;;;9.13;;
18669;SDS011;9464;44.918;9.670;2023-03-08T11:34:44;14.03;;;7.87;;
18669;SDS011;9464;44.918;9.670;2023-03-08T11:37:23;12.70;;;6.20;;
18669;SDS011;9464;44.918;9.670;2023-03-08T11:39:59;14.57;;;5.97;;
18669;SDS011;9464;44.918;9.670;2023-03-08T11:42:34;11.93;;;5.53;;
18669;SDS011;9464;44.918;9.670;2023-03-08T11:45:17;10.67;;;5.40;;
18669;SDS011;9464;44.918;9.670;2023-03-08T11:47:52;11.23;;;5.83;;
18669;SDS011;9464;44.918;9.670;2023-03-08T11:50:46;11.13;;;6.03;;
18669;SDS011;9464;44.918;9.670;2023-03-08T11:53:23;9.93;;;5.17;;
18669;SDS011;9464;44.918;9.670;2023-03-08T11:58:53;12.87;;;5.03;;
18669;SDS011;9464;44.918;9.670;2023-03-08T12:01:26;10.73;;;5.83;;
18669;SDS011;9464;44.918;9.670;2023-03-08T12:03:57;12.40;;;5.07;;
18669;SDS011;9464;44.918;9.670;2023-03-08T12:06:33;9.50;;;5.57;;
18669;SDS011;9464;44.918;9.670;2023-03-08T12:09:08;11.13;;;5.27;;
18669;SDS011;9464;44.918;9.670;2023-03-08T12:11:43;13.70;;;5.80;;
18669;SDS011;9464;44.918;9.670;2023-03-08T12:14:15;10.17;;;5.10;;
18669;SDS011;9464;44.918;9.670;2023-03-08T12:16:46;11.20;;;4.97;;
18669;SDS011;9464;44.918;9.670;2023-03-08T12:19:20;12.03;;;5.00;;
18669;SDS011;9464;44.918;9.670;2023-03-08T12:21:57;12.47;;;5.43;;
18669;SDS011;9464;44.918;9.670;2023-03-08T12:24:43;13.80;;;5.37;;
18669;SDS011;9464;44.918;9.670;2023-03-08T12:27:17;14.17;;;6.20;;
18669;SDS011;9464;44.918;9.670;2023-03-08T12:29:50;10.47;;;5.97;;
18669;SDS011;9464;44.918;9.670;2023-03-08T12:32:23;12.47;;;5.50;;
18669;SDS011;9464;44.918;9.670;2023-03-08T12:34:59;12.47;;;5.37;;
18669;SDS011;9464;44.918;9.670;2023-03-08T12:37:30;14.23;;;5.90;;
18669;SDS011;9464;44.918;9.670;2023-03-08T12:40:01;11.73;;;5.17;;
18669;SDS011;9464;44.918;9.670;2023-03-08T12:42:34;8.97;;;4.87;;
18669;SDS011;9464;44.918;9.670;2023-03-08T12:45:05;12.10;;;5.50;;
18669;SDS011;9464;44.918;9.670;2023-03-08T12:47:53;11.30;;;6.20;;
18669;SDS011;9464;44.918;9.670;2023-03-08T12:50:23;10.80;;;5.53;;
18669;SDS011;9464;44.918;9.670;2023-03-08T12:52:52;14.03;;;6.33;;
18669;SDS011;9464;44.918;9.670;2023-03-08T12:55:24;13.63;;;5.97;;
18669;SDS011;9464;44.918;9.670;2023-03-08T12:57:58;12.60;;;5.17;;
18669;SDS011;9464;44.918;9.670;2023-03-08T13:00:28;14.23;;;5.17;;
18669;SDS011;9464;44.918;9.670;2023-03-08T13:02:58;11.63;;;5.47;;
18669;SDS011;9464;44.918;9.670;2023-03-08T13:05:32;9.90;;;5.60;;
18669;SDS011;9464;44.918;9.670;2023-03-08T13:10:58;12.93;;;5.70;;
18669;SDS011;9464;44.918;9.670;2023-03-08T13:13:32;12.43;;;5.57;;
18669;SDS011;9464;44.918;9.670;2023-03-08T13:16:16;10.83;;;5.83;;
18669;SDS011;9464;44.918;9.670;2023-03-08T13:19:05;13.57;;;5.87;;
18669;SDS011;9464;44.918;9.670;2023-03-08T13:21:54;13.30;;;6.40;;
18669;SDS011;9464;44.918;9.670;2023-03-08T13:24:31;12.97;;;5.90;;
18669;SDS011;9464;44.918;9.670;2023-03-08T13:27:14;11.07;;;5.90;;
18669;SDS011;9464;44.918;9.670;2023-03-08T13:29:51;11.97;;;5.77;;
18669;SDS011;9464;44.918;9.670;2023-03-08T13:32:20;11.13;;;5.53;;
18669;SDS011;9464;44.918;9.670;2023-03-08T13:34:57;11.83;;;5.73;;
18669;SDS011;9464;44.918;9.670;2023-03-08T13:37:27;11.33;;;6.00;;
18669;SDS011;9464;44.918;9.670;2023-03-08T13:39:56;13.00;;;6.43;;
18669;SDS011;9464;44.918;9.670;2023-03-08T13:42:27;13.33;;;6.20;;
18669;SDS011;9464;44.918;9.670;2023-03-08T13:45:05;15.03;;;6.50;;
18669;SDS011;9464;44.918;9.670;2023-03-08T13:47:36;12.57;;;5.83;;
18669;SDS011;9464;44.918;9.670;2023-03-08T13:50:06;14.33;;;6.03;;
18669;SDS011;9464;44.918;9.670;2023-03-08T13:52:42;17.63;;;6.37;;
18669;SDS011;9464;44.918;9.670;2023-03-08T13:55:13;11.07;;;5.80;;
18669;SDS011;9464;44.918;9.670;2023-03-08T13:57:50;10.43;;;5.47;;
18669;SDS011;9464;44.918;9.670;2023-03-08T14:00:24;11.50;;;5.90;;
18669;SDS011;9464;44.918;9.670;2023-03-08T14:02:55;15.10;;;6.70;;
18669;SDS011;9464;44.918;9.670;2023-03-08T14:05:24;11.80;;;6.80;;
18669;SDS011;9464;44.918;9.670;2023-03-08T14:07:55;11.93;;;5.97;;
18669;SDS011;9464;44.918;9.670;2023-03-08T14:10:26;12.53;;;6.23;;
18669;SDS011;9464;44.918;9.670;2023-03-08T14:13:00;12.00;;;6.33;;
18669;SDS011;9464;44.918;9.670;2023-03-08T14:15:29;13.07;;;6.60;;
18669;SDS011;9464;44.918;9.670;2023-03-08T14:18:01;11.30;;;6.03;;
18669;SDS011;9464;44.918;9.670;2023-03-08T14:20:33;12.30;;;6.73;;
18669;SDS011;9464;44.918;9.670;2023-03-08T14:23:02;16.07;;;6.30;;
18669;SDS011;9464;44.918;9.670;2023-03-08T14:25:30;12.57;;;6.23;;
18669;SDS011;9464;44.918;9.670;2023-03-08T14:28:00;12.83;;;6.40;;
18669;SDS011;9464;44.918;9.670;2023-03-08T14:30:29;11.17;;;5.40;;
18669;SDS011;9464;44.918;9.670;2023-03-08T14:32:59;12.13;;;6.37;;
18669;SDS011;9464;44.918;9.670;2023-03-08T14:35:31;13.07;;;6.93;;
18669;SDS011;9464;44.918;9.670;2023-03-08T14:38:02;10.83;;;5.73;;
18669;SDS011;9464;44.918;9.670;2023-03-08T14:40:44;11.43;;;6.13;;
18669;SDS011;9464;44.918;9.670;2023-03-08T14:43:17;12.10;;;5.73;;
18669;SDS011;9464;44.918;9.670;2023-03-08T14:45:51;14.87;;;6.77;;
18669;SDS011;9464;44.918;9.670;2023-03-08T14:48:22;11.50;;;7.03;;
18669;SDS011;9464;44.918;9.670;2023-03-08T14:50:56;13.00;;;7.17;;
18669;SDS011;9464;44.918;9.670;2023-03-08T14:53:27;12.07;;;6.47;;
18669;SDS011;9464;44.918;9.670;2023-03-08T14:55:58;11.40;;;6.40;;
18669;SDS011;9464;44.918;9.670;2023-03-08T14:58:30;12.30;;;7.07;;
18669;SDS011;9464;44.918;9.670;2023-03-08T15:00:59;12.47;;;7.43;;
18669;SDS011;9464;44.918;9.670;2023-03-08T15:03:29;17.30;;;7.13;;
18669;SDS011;9464;44.918;9.670;2023-03-08T15:05:59;14.20;;;6.90;;
18669;SDS011;9464;44.918;9.670;2023-03-08T15:08:33;11.60;;;6.57;;
18669;SDS011;9464;44.918;9.670;2023-03-08T15:11:01;13.80;;;6.90;;
18669;SDS011;9464;44.918;9.670;2023-03-08T15:13:31;13.10;;;7.37;;
18669;SDS011;9464;44.918;9.670;2023-03-08T15:15:59;17.70;;;7.47;;
18669;SDS011;9464;44.918;9.670;2023-03-08T15:18:27;15.77;;;7.17;;
18669;SDS011;9464;44.918;9.670;2023-03-08T15:20:55;13.47;;;6.50;;
18669;SDS011;9464;44.918;9.670;2023-03-08T15:23:24;13.03;;;7.30;;